createdAt,value
2018-12-25T00:00:47.778Z,7.57
2018-12-25T00:03:16.200Z,7.30
2018-12-25T00:05:44.625Z,7.83
2018-12-25T00:08:13.148Z,10.73
2018-12-25T00:10:41.571Z,10.00
2018-12-25T00:13:10.017Z,12.23
2018-12-25T00:15:38.443Z,8.50
2018-12-25T00:18:06.903Z,8.33
2018-12-25T00:20:35.405Z,11.90
2018-12-25T00:23:03.862Z,10.93
2018-12-25T00:25:32.335Z,7.97
2018-12-25T00:28:00.798Z,9.37
2018-12-25T00:30:29.432Z,8.63
2018-12-25T00:32:57.854Z,7.13
2018-12-25T00:35:26.301Z,7.87
2018-12-25T00:37:54.731Z,8.77
2018-12-25T00:40:23.167Z,7.80
2018-12-25T00:42:51.608Z,6.23
2018-12-25T00:45:20.042Z,8.00
2018-12-25T00:47:48.489Z,11.47
2018-12-25T00:50:16.973Z,11.80
2018-12-25T00:52:45.446Z,9.13
2018-12-25T00:55:13.877Z,12.53
2018-12-25T00:57:42.312Z,13.60
2018-12-25T01:00:10.752Z,10.57
2018-12-25T01:02:39.189Z,10.20
2018-12-25T01:05:07.639Z,10.50
2018-12-25T01:07:36.073Z,9.70
2018-12-25T01:10:05.356Z,8.67
2018-12-25T01:12:33.847Z,10.50
2018-12-25T01:15:02.279Z,12.07
2018-12-25T01:17:30.786Z,9.33
2018-12-25T01:19:59.300Z,9.57
2018-12-25T01:22:27.748Z,11.67
2018-12-25T01:24:56.172Z,9.63
2018-12-25T01:27:24.624Z,11.27
2018-12-25T01:29:53.060Z,9.50
2018-12-25T01:32:21.484Z,9.97
2018-12-25T01:34:49.927Z,12.40
2018-12-25T01:37:18.387Z,15.23
2018-12-25T01:39:46.920Z,14.87
2018-12-25T01:42:15.418Z,9.90
2018-12-25T01:44:43.861Z,8.13
2018-12-25T01:47:12.347Z,8.77
2018-12-25T01:49:40.791Z,8.37
2018-12-25T01:52:09.240Z,6.40
2018-12-25T01:54:37.673Z,8.80
2018-12-25T01:57:06.396Z,7.03
2018-12-25T01:59:34.821Z,6.97
2018-12-25T02:02:03.273Z,9.73
2018-12-25T02:04:31.699Z,8.30
2018-12-25T02:07:00.134Z,9.40
2018-12-25T02:09:28.573Z,11.33
2018-12-25T02:11:57.000Z,9.97
2018-12-25T02:14:25.466Z,9.20
2018-12-25T02:16:53.959Z,8.40
2018-12-25T02:19:22.379Z,14.87
2018-12-25T02:21:50.828Z,10.63
2018-12-25T02:24:19.263Z,16.37
2018-12-25T02:26:47.726Z,11.33
2018-12-25T02:29:16.157Z,12.17
2018-12-25T02:31:44.618Z,10.97
2018-12-25T02:34:13.047Z,8.40
2018-12-25T02:36:41.467Z,8.27
2018-12-25T02:39:09.920Z,7.30
2018-12-25T02:41:38.355Z,9.13
2018-12-25T02:44:06.891Z,10.40
2018-12-25T02:46:36.926Z,8.80
2018-12-25T02:49:05.372Z,8.07
2018-12-25T02:51:33.859Z,7.40
2018-12-25T02:54:02.289Z,8.63
2018-12-25T02:56:30.797Z,8.63
2018-12-25T02:58:59.229Z,8.60
2018-12-25T03:01:27.683Z,8.50
2018-12-25T03:03:56.104Z,7.43
2018-12-25T03:06:24.528Z,9.53
2018-12-25T03:08:52.972Z,9.77
2018-12-25T03:11:21.406Z,11.33
2018-12-25T03:13:49.834Z,7.23
2018-12-25T03:16:18.283Z,7.63
2018-12-25T03:18:46.714Z,8.77
2018-12-25T03:21:15.214Z,8.23
2018-12-25T03:23:43.660Z,9.70
2018-12-25T03:26:12.093Z,9.70
2018-12-25T03:28:40.537Z,9.93
2018-12-25T03:31:08.967Z,9.43
2018-12-25T03:33:37.491Z,7.90
2018-12-25T03:36:06.028Z,12.23
2018-12-25T03:38:34.495Z,10.03
2018-12-25T03:41:02.952Z,8.33
2018-12-25T03:43:31.373Z,10.03
2018-12-25T03:45:59.813Z,10.00
2018-12-25T03:48:28.344Z,10.27
2018-12-25T03:50:56.845Z,8.67
2018-12-25T03:53:25.284Z,9.10
2018-12-25T03:55:53.738Z,9.87
2018-12-25T03:58:22.175Z,9.20
2018-12-25T04:00:50.735Z,7.40
2018-12-25T04:03:19.194Z,9.10
2018-12-25T04:05:47.733Z,8.90
2018-12-25T04:08:16.343Z,8.97
2018-12-25T04:10:44.768Z,10.10
2018-12-25T04:13:13.224Z,9.47
2018-12-25T04:15:41.656Z,10.70
2018-12-25T04:18:10.084Z,11.57
2018-12-25T04:20:38.533Z,9.90
2018-12-25T04:23:06.961Z,11.90
2018-12-25T04:25:35.392Z,10.03
2018-12-25T04:28:03.848Z,12.13
2018-12-25T04:30:32.280Z,11.17
2018-12-25T04:33:00.710Z,13.47
2018-12-25T04:35:29.180Z,10.30
2018-12-25T04:37:57.612Z,11.83
2018-12-25T04:40:26.036Z,20.47
2018-12-25T04:42:54.512Z,13.53
2018-12-25T04:45:22.973Z,11.33
2018-12-25T04:47:51.410Z,10.13
2018-12-25T04:50:29.000Z,10.47
2018-12-25T04:52:49.825Z,13.50
2018-12-25T04:55:18.371Z,9.73
2018-12-25T04:57:46.877Z,9.73
2018-12-25T05:00:15.392Z,7.87
2018-12-25T05:02:43.816Z,11.30
2018-12-25T05:05:12.268Z,11.27
2018-12-25T05:07:40.694Z,10.07
2018-12-25T05:10:09.142Z,11.70
2018-12-25T05:12:38.490Z,10.33
2018-12-25T05:15:06.961Z,10.50
2018-12-25T05:17:35.447Z,10.07
2018-12-25T05:20:05.028Z,9.50
2018-12-25T05:22:33.456Z,9.60
2018-12-25T05:25:01.900Z,9.40
2018-12-25T05:27:30.332Z,10.83
2018-12-25T05:29:58.780Z,8.83
2018-12-25T05:32:27.212Z,9.13
2018-12-25T05:34:55.717Z,10.87
2018-12-25T05:37:24.240Z,7.37
2018-12-25T05:39:52.806Z,8.63
2018-12-25T05:42:21.328Z,9.33
2018-12-25T05:44:49.775Z,7.17
2018-12-25T05:47:18.212Z,12.10
2018-12-25T05:49:46.642Z,13.87
2018-12-25T05:52:15.086Z,16.07
2018-12-25T05:54:43.585Z,15.77
2018-12-25T05:57:12.039Z,13.37
2018-12-25T05:59:40.566Z,14.07
2018-12-25T06:02:09.099Z,10.83
2018-12-25T06:04:37.526Z,12.73
2018-12-25T06:07:05.953Z,9.90
2018-12-25T06:09:34.409Z,11.23
2018-12-25T06:12:02.842Z,9.90
2018-12-25T06:14:31.261Z,11.77
2018-12-25T06:16:59.704Z,10.57
2018-12-25T06:19:28.145Z,13.10
2018-12-25T06:21:56.600Z,11.27
2018-12-25T06:24:25.044Z,12.80
2018-12-25T06:26:53.511Z,10.13
2018-12-25T06:29:21.964Z,11.80
2018-12-25T06:31:50.400Z,10.90
2018-12-25T06:34:18.989Z,8.70
2018-12-25T06:36:47.424Z,9.97
2018-12-25T06:39:15.856Z,11.17
2018-12-25T06:41:44.304Z,11.10
2018-12-25T06:44:12.730Z,12.50
2018-12-25T06:46:41.200Z,11.43
2018-12-25T06:49:09.652Z,11.03
2018-12-25T06:51:38.085Z,11.97
2018-12-25T06:54:06.526Z,9.60
2018-12-25T06:56:34.957Z,12.17
2018-12-25T06:59:03.397Z,10.77
2018-12-25T07:01:31.837Z,11.23
2018-12-25T07:04:00.287Z,10.20
2018-12-25T07:06:28.726Z,11.43
2018-12-25T07:08:57.172Z,10.50
2018-12-25T07:11:25.604Z,11.93
2018-12-25T07:13:54.048Z,11.13
2018-12-25T07:16:22.491Z,14.00
2018-12-25T07:18:50.948Z,14.23
2018-12-25T07:21:19.401Z,13.17
2018-12-25T07:23:47.841Z,13.57
2018-12-25T07:26:16.371Z,9.60
2018-12-25T07:28:44.817Z,10.57
2018-12-25T07:31:13.290Z,9.70
2018-12-25T07:33:41.717Z,10.93
2018-12-25T07:36:10.167Z,10.53
2018-12-25T07:38:38.600Z,9.67
2018-12-25T07:41:07.058Z,9.03
2018-12-25T07:43:35.493Z,6.43
2018-12-25T07:46:03.919Z,8.40
2018-12-25T07:48:32.425Z,9.33
2018-12-25T07:51:00.927Z,11.27
2018-12-25T07:53:29.359Z,15.67
2018-12-25T07:55:59.580Z,11.93
2018-12-25T07:58:28.004Z,8.37
2018-12-25T08:00:56.473Z,10.40
2018-12-25T08:03:24.927Z,10.43
2018-12-25T08:05:53.577Z,9.83
2018-12-25T08:08:22.144Z,9.37
2018-12-25T08:10:50.580Z,12.97
2018-12-25T08:13:19.037Z,10.70
2018-12-25T08:15:47.496Z,14.37
2018-12-25T08:18:15.944Z,11.03
2018-12-25T08:20:44.398Z,10.67
2018-12-25T08:23:12.828Z,9.93
2018-12-25T08:25:41.267Z,9.63
2018-12-25T08:28:09.730Z,9.47
2018-12-25T08:30:38.160Z,9.63
2018-12-25T08:33:06.602Z,13.60
2018-12-25T08:35:35.178Z,13.47
2018-12-25T08:38:03.631Z,16.00
2018-12-25T08:40:32.072Z,23.03
2018-12-25T08:43:00.504Z,35.00
2018-12-25T08:45:31.874Z,10.90
2018-12-25T08:48:00.301Z,28.03
2018-12-25T08:50:28.748Z,19.57
2018-12-25T08:52:57.260Z,50.50
2018-12-25T08:55:25.709Z,58.30
2018-12-25T08:57:54.962Z,43.53
2018-12-25T09:00:23.738Z,24.00
2018-12-25T09:02:52.242Z,34.87
2018-12-25T09:05:20.681Z,17.37
2018-12-25T09:07:49.218Z,9.30
2018-12-25T09:10:17.727Z,29.87
2018-12-25T09:12:46.330Z,24.93
2018-12-25T09:15:14.812Z,23.97
2018-12-25T09:17:43.306Z,14.93
2018-12-25T09:20:11.959Z,11.20
2018-12-25T09:22:40.451Z,9.53
2018-12-25T09:25:10.761Z,12.13
2018-12-25T09:27:39.225Z,8.70
2018-12-25T09:30:09.281Z,14.43
2018-12-25T09:32:37.728Z,9.93
2018-12-25T09:35:06.226Z,11.13
2018-12-25T09:37:34.693Z,10.93
2018-12-25T09:40:03.866Z,13.37
2018-12-25T09:42:32.284Z,12.47
2018-12-25T09:45:00.725Z,17.83
2018-12-25T09:47:29.164Z,14.07
2018-12-25T09:49:57.589Z,8.90
2018-12-25T09:52:26.032Z,39.17
2018-12-25T09:54:54.459Z,9.13
2018-12-25T09:57:22.965Z,16.73
2018-12-25T09:59:51.414Z,9.77
2018-12-25T10:02:19.839Z,19.70
2018-12-25T10:04:48.284Z,12.97
2018-12-25T10:07:16.725Z,18.03
2018-12-25T10:09:45.178Z,16.57
2018-12-25T10:12:13.598Z,10.77
2018-12-25T10:14:42.036Z,19.30
2018-12-25T10:17:10.469Z,10.97
2018-12-25T10:19:38.917Z,29.83
2018-12-25T10:22:07.353Z,12.23
2018-12-25T10:24:35.787Z,28.00
2018-12-25T10:27:04.214Z,24.63
2018-12-25T10:29:32.650Z,7.63
2018-12-25T10:32:01.072Z,37.03
2018-12-25T10:34:29.630Z,10.07
2018-12-25T10:36:58.119Z,11.37
2018-12-25T10:39:26.545Z,42.73
2018-12-25T10:41:55.037Z,31.33
2018-12-25T10:44:23.488Z,18.03
2018-12-25T10:46:51.929Z,14.13
2018-12-25T10:49:20.621Z,15.70
2018-12-25T10:51:55.311Z,16.60
2018-12-25T10:54:23.789Z,52.47
2018-12-25T10:56:52.224Z,53.37
2018-12-25T10:59:20.684Z,97.27
2018-12-25T11:01:49.116Z,42.43
2018-12-25T11:04:17.567Z,18.73
2018-12-25T11:06:46.095Z,29.07
2018-12-25T11:09:14.546Z,50.77
2018-12-25T11:11:43.010Z,29.00
2018-12-25T11:14:11.433Z,26.40
2018-12-25T11:16:39.887Z,16.00
2018-12-25T11:19:08.302Z,19.17
2018-12-25T11:21:36.735Z,19.73
2018-12-25T11:24:05.173Z,16.17
2018-12-25T11:26:33.601Z,14.37
2018-12-25T11:29:02.042Z,13.90
2018-12-25T11:31:30.475Z,11.73
2018-12-25T11:33:58.910Z,12.73
2018-12-25T11:36:27.336Z,12.53
2018-12-25T11:38:55.787Z,15.97
2018-12-25T11:41:24.205Z,15.83
2018-12-25T11:43:52.644Z,15.80
2018-12-25T11:46:21.080Z,17.03
2018-12-25T11:48:49.536Z,15.77
2018-12-25T11:51:17.974Z,16.73
2018-12-25T11:53:46.496Z,18.37
2018-12-25T11:56:14.930Z,13.87
2018-12-25T11:58:43.451Z,16.07
2018-12-25T12:01:11.877Z,12.30
2018-12-25T12:03:40.328Z,13.00
2018-12-25T12:06:08.749Z,12.33
2018-12-25T12:08:37.176Z,14.53
2018-12-25T12:11:05.620Z,9.33
2018-12-25T12:13:34.052Z,11.63
2018-12-25T12:16:02.472Z,12.67
2018-12-25T12:18:30.916Z,10.30
2018-12-25T12:20:59.344Z,13.80
2018-12-25T12:23:27.761Z,11.03
2018-12-25T12:25:56.216Z,15.10
2018-12-25T12:28:24.716Z,11.80
2018-12-25T12:30:53.225Z,13.70
2018-12-25T12:33:21.689Z,12.00
2018-12-25T12:35:50.213Z,12.57
2018-12-25T12:38:18.714Z,10.70
2018-12-25T12:40:47.234Z,15.13
2018-12-25T12:43:15.716Z,12.60
2018-12-25T12:45:44.258Z,12.83
2018-12-25T12:48:12.688Z,11.00
2018-12-25T12:50:41.119Z,10.13
2018-12-25T12:53:09.568Z,9.57
2018-12-25T12:55:37.990Z,10.80
2018-12-25T12:58:06.413Z,10.93
2018-12-25T13:00:34.862Z,11.77
2018-12-25T13:03:03.346Z,14.30
2018-12-25T13:05:31.870Z,11.37
2018-12-25T13:08:00.363Z,12.83
2018-12-25T13:10:28.792Z,12.47
2018-12-25T13:12:57.367Z,11.10
2018-12-25T13:15:25.861Z,10.73
2018-12-25T13:17:54.288Z,14.43
2018-12-25T13:20:22.756Z,11.63
2018-12-25T13:22:54.244Z,14.17
2018-12-25T13:25:21.397Z,15.97
2018-12-25T13:27:49.862Z,14.20
2018-12-25T13:30:18.431Z,12.53
2018-12-25T13:32:47.005Z,13.33
2018-12-25T13:35:15.449Z,10.57
2018-12-25T13:37:43.892Z,15.27
2018-12-25T13:40:12.328Z,12.83
2018-12-25T13:42:40.776Z,12.83
2018-12-25T13:45:09.201Z,13.63
2018-12-25T13:47:37.696Z,14.57
2018-12-25T13:50:08.685Z,13.37
2018-12-25T13:52:37.116Z,17.97
2018-12-25T13:55:05.820Z,14.63
2018-12-25T13:57:34.272Z,14.10
2018-12-25T14:00:03.170Z,15.90
2018-12-25T14:02:31.588Z,15.57
2018-12-25T14:05:00.033Z,14.20
2018-12-25T14:07:28.456Z,18.63
2018-12-25T14:09:56.973Z,15.90
2018-12-25T14:12:25.408Z,16.17
2018-12-25T14:14:54.055Z,16.97
2018-12-25T14:17:22.459Z,18.87
2018-12-25T14:19:50.919Z,17.17
2018-12-25T14:22:19.369Z,17.20
2018-12-25T14:24:47.801Z,14.90
2018-12-25T14:27:16.357Z,17.67
2018-12-25T14:29:44.781Z,16.50
2018-12-25T14:32:13.200Z,14.90
2018-12-25T14:34:41.734Z,16.87
2018-12-25T14:37:10.148Z,17.63
2018-12-25T14:39:38.646Z,15.53
2018-12-25T14:42:07.084Z,19.17
2018-12-25T14:44:35.551Z,20.10
2018-12-25T14:47:03.999Z,24.13
2018-12-25T14:49:32.428Z,25.13
2018-12-25T14:52:00.939Z,22.30
2018-12-25T14:54:29.376Z,21.07
2018-12-25T14:56:57.819Z,20.63
2018-12-25T14:59:26.256Z,21.83
2018-12-25T15:01:54.681Z,23.67
2018-12-25T15:04:23.136Z,24.50
2018-12-25T15:06:51.614Z,23.20
2018-12-25T15:09:20.039Z,25.73
2018-12-25T15:11:48.485Z,22.00
2018-12-25T15:14:16.914Z,25.23
2018-12-25T15:16:45.433Z,26.30
2018-12-25T15:19:13.981Z,28.00
2018-12-25T15:21:42.492Z,26.27
2018-12-25T15:24:10.951Z,29.10
2018-12-25T15:26:39.486Z,25.90
2018-12-25T15:29:07.937Z,28.37
2018-12-25T15:31:36.369Z,27.23
2018-12-25T15:34:04.919Z,25.27
2018-12-25T15:36:33.417Z,23.17
2018-12-25T15:39:01.874Z,26.90
2018-12-25T15:41:30.376Z,27.30
2018-12-25T15:43:58.822Z,21.67
2018-12-25T15:46:27.248Z,26.43
2018-12-25T15:48:55.696Z,28.10
2018-12-25T15:51:24.124Z,28.43
2018-12-25T15:53:53.317Z,35.63
2018-12-25T15:56:21.744Z,30.83
2018-12-25T15:58:50.184Z,30.70
2018-12-25T16:01:18.617Z,31.03
2018-12-25T16:03:47.062Z,28.93
2018-12-25T16:06:15.507Z,32.70
2018-12-25T16:08:43.952Z,28.67
2018-12-25T16:11:12.379Z,35.87
2018-12-25T16:13:40.807Z,26.37
2018-12-25T16:16:09.271Z,30.97
2018-12-25T16:18:37.703Z,33.10
2018-12-25T16:21:06.156Z,29.70
2018-12-25T16:23:34.656Z,31.77
2018-12-25T16:26:03.112Z,31.10
2018-12-25T16:28:31.616Z,26.30
2018-12-25T16:31:00.064Z,30.87
2018-12-25T16:33:28.503Z,28.13
2018-12-25T16:35:56.953Z,31.07
2018-12-25T16:38:25.381Z,28.47
2018-12-25T16:40:53.828Z,27.53
2018-12-25T16:43:22.252Z,27.57
2018-12-25T16:45:50.706Z,30.33
2018-12-25T16:48:19.141Z,31.73
2018-12-25T16:50:47.613Z,37.20
2018-12-25T16:53:16.080Z,30.93
2018-12-25T16:55:46.193Z,25.90
2018-12-25T16:58:14.728Z,25.60
2018-12-25T17:00:43.156Z,28.70
2018-12-25T17:03:11.588Z,30.47
2018-12-25T17:05:40.107Z,32.80
2018-12-25T17:08:08.548Z,38.03
2018-12-25T17:10:38.102Z,36.37
2018-12-25T17:13:06.553Z,34.93
2018-12-25T17:15:35.065Z,32.73
2018-12-25T17:18:03.498Z,31.33
2018-12-25T17:20:31.949Z,35.13
2018-12-25T17:23:00.387Z,39.37
2018-12-25T17:25:28.819Z,31.67
2018-12-25T17:27:57.265Z,32.73
2018-12-25T17:30:26.365Z,38.20
2018-12-25T17:32:55.653Z,35.70
2018-12-25T17:35:24.317Z,38.20
2018-12-25T17:37:52.745Z,38.90
2018-12-25T17:40:21.195Z,28.53
2018-12-25T17:42:49.628Z,29.47
2018-12-25T17:45:18.076Z,31.13
2018-12-25T17:47:46.543Z,34.00
2018-12-25T17:50:15.025Z,32.60
2018-12-25T17:52:43.463Z,42.40
2018-12-25T17:55:11.995Z,35.07
2018-12-25T17:57:40.496Z,30.33
2018-12-25T18:00:08.933Z,28.63
2018-12-25T18:02:37.392Z,30.77
2018-12-25T18:05:11.855Z,31.67
2018-12-25T18:07:35.971Z,34.47
2018-12-25T18:10:04.656Z,35.70
2018-12-25T18:12:33.099Z,45.77
2018-12-25T18:15:01.545Z,48.00
2018-12-25T18:17:29.997Z,47.60
2018-12-25T18:19:58.439Z,43.77
2018-12-25T18:22:26.889Z,41.70
2018-12-25T18:24:55.344Z,38.03
2018-12-25T18:27:25.576Z,40.77
2018-12-25T18:29:54.024Z,38.37
2018-12-25T18:32:22.484Z,34.70
2018-12-25T18:34:50.911Z,38.30
2018-12-25T18:37:19.357Z,34.77
2018-12-25T18:39:54.874Z,31.23
2018-12-25T18:42:23.465Z,30.30
2018-12-25T18:44:52.130Z,33.00
2018-12-25T18:47:20.624Z,31.57
2018-12-25T18:49:49.078Z,26.90
2018-12-25T18:52:17.588Z,26.77
2018-12-25T18:54:46.068Z,30.97
2018-12-25T18:57:14.503Z,34.00
2018-12-25T18:59:42.931Z,31.80
2018-12-25T19:02:11.388Z,26.00
2018-12-25T19:04:39.823Z,29.67
2018-12-25T19:07:08.260Z,29.27
2018-12-25T19:09:36.713Z,28.90
2018-12-25T19:12:05.159Z,28.23
2018-12-25T19:14:34.252Z,28.47
2018-12-25T19:17:02.700Z,29.60
2018-12-25T19:19:31.156Z,29.17
2018-12-25T19:21:59.616Z,25.10
2018-12-25T19:24:36.110Z,26.53
2018-12-25T19:26:58.211Z,29.83
2018-12-25T19:29:26.677Z,27.47
2018-12-25T19:31:55.104Z,25.53
2018-12-25T19:34:23.537Z,29.90
2018-12-25T19:36:51.984Z,27.90
2018-12-25T19:39:20.443Z,32.80
2018-12-25T19:41:48.953Z,28.03
2018-12-25T19:44:17.412Z,33.43
2018-12-25T19:46:45.852Z,31.93
2018-12-25T19:49:14.280Z,33.80
2018-12-25T19:51:42.732Z,29.97
2018-12-25T19:54:11.310Z,39.37
2018-12-25T19:56:39.737Z,33.10
2018-12-25T19:59:08.256Z,34.23
2018-12-25T20:01:36.763Z,30.60
2018-12-25T20:04:07.909Z,33.00
2018-12-25T20:07:02.222Z,33.40
2018-12-25T20:09:45.689Z,35.77
2018-12-25T20:12:39.673Z,37.80
2018-12-25T20:15:29.056Z,34.87
2018-12-25T20:18:09.812Z,32.90
2018-12-25T20:21:13.160Z,29.73
2018-12-25T20:23:59.973Z,34.73
2018-12-25T20:26:37.058Z,35.17
2018-12-25T20:29:31.308Z,33.27
2018-12-25T20:32:20.986Z,33.07
2018-12-25T20:35:14.903Z,31.93
2018-12-25T20:37:51.853Z,32.03
2018-12-25T20:40:32.296Z,36.53
2018-12-25T20:43:12.000Z,34.63
2018-12-25T20:45:46.600Z,37.13
2018-12-25T20:48:51.760Z,36.20
2018-12-25T20:51:41.288Z,34.20
2018-12-25T20:54:30.653Z,36.93
2018-12-25T20:57:11.064Z,32.90
2018-12-25T21:00:07.635Z,25.47
2018-12-25T21:02:39.164Z,33.40
2018-12-25T21:05:25.730Z,29.30
2018-12-25T21:08:13.596Z,29.03
2018-12-25T21:10:50.820Z,28.37
2018-12-25T21:13:49.580Z,32.17
2018-12-25T21:16:36.112Z,29.50
2018-12-25T21:19:40.839Z,29.10
2018-12-25T21:22:24.512Z,35.43
2018-12-25T21:25:29.207Z,34.00
2018-12-25T21:27:56.640Z,31.67
2018-12-25T21:30:26.116Z,39.47
2018-12-25T21:32:54.807Z,37.20
2018-12-25T21:35:23.508Z,42.50
2018-12-25T21:37:52.295Z,43.27
2018-12-25T21:40:20.963Z,35.03
2018-12-25T21:42:50.692Z,33.40
2018-12-25T21:45:19.369Z,34.83
2018-12-25T21:47:47.824Z,36.67
2018-12-25T21:50:16.696Z,34.67
2018-12-25T21:52:45.376Z,28.63
2018-12-25T21:55:18.553Z,34.63
2018-12-25T21:57:44.668Z,36.27
2018-12-25T22:00:13.672Z,33.87
2018-12-25T22:02:42.191Z,37.57
2018-12-25T22:05:10.708Z,39.63
2018-12-25T22:07:39.330Z,36.80
2018-12-25T22:10:08.099Z,34.77
2018-12-25T22:12:36.525Z,41.27
2018-12-25T22:15:07.021Z,37.53
2018-12-25T22:17:35.528Z,36.73
2018-12-25T22:20:07.060Z,35.53
2018-12-25T22:22:35.485Z,36.33
2018-12-25T22:25:04.042Z,35.00
2018-12-25T22:27:32.482Z,42.53
2018-12-25T22:30:00.932Z,43.97
2018-12-25T22:32:29.397Z,45.60
2018-12-25T22:34:57.873Z,36.60
2018-12-25T22:37:26.300Z,39.30
2018-12-25T22:39:54.732Z,44.73
2018-12-25T22:42:23.188Z,42.23
2018-12-25T22:44:51.621Z,42.63
2018-12-25T22:47:20.072Z,39.10
2018-12-25T22:49:48.509Z,34.30
2018-12-25T22:52:16.948Z,33.57
2018-12-25T22:54:45.472Z,39.27
2018-12-25T22:57:13.912Z,36.80
2018-12-25T22:59:42.374Z,32.13
2018-12-25T23:02:10.896Z,36.53
2018-12-25T23:04:39.352Z,38.63
2018-12-25T23:07:07.856Z,38.03
2018-12-25T23:09:36.309Z,42.47
2018-12-25T23:12:04.746Z,45.13
2018-12-25T23:14:33.192Z,39.07
2018-12-25T23:17:01.636Z,38.27
2018-12-25T23:19:30.088Z,34.57
2018-12-25T23:21:58.520Z,54.97
2018-12-25T23:24:26.955Z,35.90
2018-12-25T23:26:55.412Z,55.60
2018-12-25T23:29:23.912Z,38.67
2018-12-25T23:31:52.470Z,37.27
2018-12-25T23:34:20.980Z,41.87
2018-12-25T23:36:49.414Z,45.23
2018-12-25T23:39:17.943Z,38.60
2018-12-25T23:41:46.376Z,75.77
2018-12-25T23:44:14.810Z,37.27
2018-12-25T23:46:43.260Z,36.77
2018-12-25T23:49:11.779Z,34.77
2018-12-25T23:51:40.218Z,33.80
2018-12-25T23:54:08.677Z,43.67
2018-12-25T23:56:37.109Z,39.67
2018-12-25T23:59:05.558Z,39.57
